sensor_id;sensor_type;location;lat;lon;timestamp;P1;durP1;ratioP1;P2;durP2;ratioP2
33836;SDS011;20140;49.356;8.812;2023-02-13T00:01:56;36.70;;;20.47;;
33836;SDS011;20140;49.356;8.812;2023-02-13T00:04:21;25.90;;;17.80;;
33836;SDS011;20140;49.356;8.812;2023-02-13T00:06:47;25.63;;;17.73;;
33836;SDS011;20140;49.356;8.812;2023-02-13T00:09:12;24.03;;;17.33;;
33836;SDS011;20140;49.356;8.812;2023-02-13T00:11:38;27.17;;;16.88;;
33836;SDS011;20140;49.356;8.812;2023-02-13T00:14:04;22.77;;;14.80;;
33836;SDS011;20140;49.356;8.812;2023-02-13T00:16:29;25.47;;;15.27;;
33836;SDS011;20140;49.356;8.812;2023-02-13T00:18:55;22.30;;;13.70;;
33836;SDS011;20140;49.356;8.812;2023-02-13T00:21:21;23.37;;;15.33;;
33836;SDS011;20140;49.356;8.812;2023-02-13T00:23:46;25.00;;;15.43;;
33836;SDS011;20140;49.356;8.812;2023-02-13T00:26:13;22.50;;;13.23;;
33836;SDS011;20140;49.356;8.812;2023-02-13T00:28:39;23.15;;;13.90;;
33836;SDS011;20140;49.356;8.812;2023-02-13T00:31:07;24.70;;;13.95;;
33836;SDS011;20140;49.356;8.812;2023-02-13T00:33:37;22.45;;;13.93;;
33836;SDS011;20140;49.356;8.812;2023-02-13T00:36:07;18.95;;;11.50;;
33836;SDS011;20140;49.356;8.812;2023-02-13T00:38:34;20.95;;;12.80;;
33836;SDS011;20140;49.356;8.812;2023-02-13T00:41:01;22.27;;;12.02;;
33836;SDS011;20140;49.356;8.812;2023-02-13T00:43:27;26.23;;;13.00;;
33836;SDS011;20140;49.356;8.812;2023-02-13T00:45:53;25.52;;;14.75;;
33836;SDS011;20140;49.356;8.812;2023-02-13T00:48:19;25.13;;;13.43;;
33836;SDS011;20140;49.356;8.812;2023-02-13T00:50:47;21.77;;;13.77;;
33836;SDS011;20140;49.356;8.812;2023-02-13T00:53:13;22.15;;;13.95;;
33836;SDS011;20140;49.356;8.812;2023-02-13T00:55:39;23.58;;;14.65;;
33836;SDS011;20140;49.356;8.812;2023-02-13T00:58:04;21.02;;;12.95;;
33836;SDS011;20140;49.356;8.812;2023-02-13T01:00:30;21.60;;;14.03;;
33836;SDS011;20140;49.356;8.812;2023-02-13T01:02:55;20.37;;;12.33;;
33836;SDS011;20140;49.356;8.812;2023-02-13T01:05:20;16.60;;;11.13;;
33836;SDS011;20140;49.356;8.812;2023-02-13T01:07:46;17.87;;;12.10;;
33836;SDS011;20140;49.356;8.812;2023-02-13T01:10:12;21.97;;;12.87;;
33836;SDS011;20140;49.356;8.812;2023-02-13T01:12:37;19.80;;;12.37;;
33836;SDS011;20140;49.356;8.812;2023-02-13T01:15:03;18.70;;;12.20;;
33836;SDS011;20140;49.356;8.812;2023-02-13T01:17:29;17.37;;;12.33;;
33836;SDS011;20140;49.356;8.812;2023-02-13T01:19:55;20.93;;;12.33;;
33836;SDS011;20140;49.356;8.812;2023-02-13T01:22:20;18.60;;;11.73;;
33836;SDS011;20140;49.356;8.812;2023-02-13T01:24:46;16.40;;;10.87;;
33836;SDS011;20140;49.356;8.812;2023-02-13T01:27:11;20.20;;;12.77;;
33836;SDS011;20140;49.356;8.812;2023-02-13T01:29:37;21.00;;;13.37;;
33836;SDS011;20140;49.356;8.812;2023-02-13T01:32:02;19.43;;;11.57;;
33836;SDS011;20140;49.356;8.812;2023-02-13T01:34:29;17.35;;;9.90;;
33836;SDS011;20140;49.356;8.812;2023-02-13T01:36:56;16.23;;;11.13;;
33836;SDS011;20140;49.356;8.812;2023-02-13T01:39:21;17.97;;;11.60;;
33836;SDS011;20140;49.356;8.812;2023-02-13T01:41:46;21.00;;;11.93;;
33836;SDS011;20140;49.356;8.812;2023-02-13T01:47:37;19.23;;;11.80;;
33836;SDS011;20140;49.356;8.812;2023-02-13T01:52:39;20.17;;;11.57;;
33836;SDS011;20140;49.356;8.812;2023-02-13T01:55:08;20.10;;;11.77;;
33836;SDS011;20140;49.356;8.812;2023-02-13T01:57:36;20.23;;;12.18;;
33836;SDS011;20140;49.356;8.812;2023-02-13T02:00:10;18.60;;;12.52;;
33836;SDS011;20140;49.356;8.812;2023-02-13T02:02:40;19.02;;;12.07;;
33836;SDS011;20140;49.356;8.812;2023-02-13T02:05:09;15.93;;;10.80;;
33836;SDS011;20140;49.356;8.812;2023-02-13T02:07:36;18.25;;;11.63;;
33836;SDS011;20140;49.356;8.812;2023-02-13T02:10:04;19.33;;;10.73;;
33836;SDS011;20140;49.356;8.812;2023-02-13T02:15:21;16.93;;;10.80;;
33836;SDS011;20140;49.356;8.812;2023-02-13T02:17:47;18.10;;;10.38;;
33836;SDS011;20140;49.356;8.812;2023-02-13T02:20:23;16.77;;;11.23;;
33836;SDS011;20140;49.356;8.812;2023-02-13T02:43:39;17.15;;;10.85;;
33836;SDS011;20140;49.356;8.812;2023-02-13T02:51:48;14.67;;;9.10;;
33836;SDS011;20140;49.356;8.812;2023-02-13T02:54:29;18.13;;;11.23;;
33836;SDS011;20140;49.356;8.812;2023-02-13T02:57:29;16.42;;;10.30;;
33836;SDS011;20140;49.356;8.812;2023-02-13T03:00:19;16.23;;;10.93;;
33836;SDS011;20140;49.356;8.812;2023-02-13T03:03:20;17.00;;;11.07;;
33836;SDS011;20140;49.356;8.812;2023-02-13T03:06:10;17.40;;;10.45;;
33836;SDS011;20140;49.356;8.812;2023-02-13T03:08:42;21.77;;;10.38;;
33836;SDS011;20140;49.356;8.812;2023-02-13T03:11:29;18.95;;;11.30;;
33836;SDS011;20140;49.356;8.812;2023-02-13T03:14:19;16.42;;;10.35;;
33836;SDS011;20140;49.356;8.812;2023-02-13T03:16:45;14.57;;;9.50;;
33836;SDS011;20140;49.356;8.812;2023-02-13T03:22:33;17.67;;;11.10;;
33836;SDS011;20140;49.356;8.812;2023-02-13T03:30:51;15.90;;;9.73;;
33836;SDS011;20140;49.356;8.812;2023-02-13T03:33:38;20.05;;;11.57;;
33836;SDS011;20140;49.356;8.812;2023-02-13T03:39:46;20.20;;;12.30;;
33836;SDS011;20140;49.356;8.812;2023-02-13T03:42:30;17.10;;;10.90;;
33836;SDS011;20140;49.356;8.812;2023-02-13T03:45:02;18.10;;;11.40;;
33836;SDS011;20140;49.356;8.812;2023-02-13T03:47:49;13.63;;;9.17;;
33836;SDS011;20140;49.356;8.812;2023-02-13T03:50:17;13.00;;;8.90;;
33836;SDS011;20140;49.356;8.812;2023-02-13T03:52:45;13.25;;;8.15;;
33836;SDS011;20140;49.356;8.812;2023-02-13T03:55:16;13.95;;;8.82;;
33836;SDS011;20140;49.356;8.812;2023-02-13T03:58:18;13.57;;;8.85;;
33836;SDS011;20140;49.356;8.812;2023-02-13T04:01:08;13.45;;;9.07;;
33836;SDS011;20140;49.356;8.812;2023-02-13T04:06:13;13.05;;;9.02;;
33836;SDS011;20140;49.356;8.812;2023-02-13T04:08:41;13.68;;;9.38;;
33836;SDS011;20140;49.356;8.812;2023-02-13T04:11:09;14.18;;;10.20;;
33836;SDS011;20140;49.356;8.812;2023-02-13T04:13:51;14.30;;;9.50;;
33836;SDS011;20140;49.356;8.812;2023-02-13T04:16:32;13.20;;;8.30;;
33836;SDS011;20140;49.356;8.812;2023-02-13T04:19:04;14.07;;;8.02;;
33836;SDS011;20140;49.356;8.812;2023-02-13T04:21:31;11.82;;;8.15;;
33836;SDS011;20140;49.356;8.812;2023-02-13T04:23:58;14.82;;;8.13;;
33836;SDS011;20140;49.356;8.812;2023-02-13T04:26:32;15.30;;;9.80;;
33836;SDS011;20140;49.356;8.812;2023-02-13T04:29:02;18.52;;;10.73;;
33836;SDS011;20140;49.356;8.812;2023-02-13T04:31:28;13.00;;;7.50;;
33836;SDS011;20140;49.356;8.812;2023-02-13T04:33:53;12.40;;;7.63;;
33836;SDS011;20140;49.356;8.812;2023-02-13T04:36:19;13.90;;;9.30;;
33836;SDS011;20140;49.356;8.812;2023-02-13T04:38:44;13.70;;;7.83;;
33836;SDS011;20140;49.356;8.812;2023-02-13T04:41:10;14.40;;;8.90;;
33836;SDS011;20140;49.356;8.812;2023-02-13T04:43:36;13.30;;;8.20;;
33836;SDS011;20140;49.356;8.812;2023-02-13T04:46:02;11.40;;;7.72;;
33836;SDS011;20140;49.356;8.812;2023-02-13T04:48:27;10.70;;;7.22;;
33836;SDS011;20140;49.356;8.812;2023-02-13T04:50:53;12.47;;;7.97;;
33836;SDS011;20140;49.356;8.812;2023-02-13T04:53:18;12.47;;;7.87;;
33836;SDS011;20140;49.356;8.812;2023-02-13T04:55:44;16.67;;;8.20;;
33836;SDS011;20140;49.356;8.812;2023-02-13T04:58:09;13.30;;;7.73;;
33836;SDS011;20140;49.356;8.812;2023-02-13T05:00:35;12.03;;;7.70;;
33836;SDS011;20140;49.356;8.812;2023-02-13T05:03:05;15.63;;;8.43;;
33836;SDS011;20140;49.356;8.812;2023-02-13T05:05:32;11.40;;;8.02;;
33836;SDS011;20140;49.356;8.812;2023-02-13T05:07:58;13.60;;;8.18;;
33836;SDS011;20140;49.356;8.812;2023-02-13T05:10:24;13.60;;;7.60;;
33836;SDS011;20140;49.356;8.812;2023-02-13T05:12:49;12.60;;;7.43;;
33836;SDS011;20140;49.356;8.812;2023-02-13T05:15:15;14.00;;;8.40;;
33836;SDS011;20140;49.356;8.812;2023-02-13T05:17:44;10.57;;;7.28;;
33836;SDS011;20140;49.356;8.812;2023-02-13T05:20:10;13.60;;;7.25;;
33836;SDS011;20140;49.356;8.812;2023-02-13T05:22:36;12.68;;;7.93;;
33836;SDS011;20140;49.356;8.812;2023-02-13T05:25:21;11.80;;;7.15;;
33836;SDS011;20140;49.356;8.812;2023-02-13T05:27:46;13.00;;;7.30;;
33836;SDS011;20140;49.356;8.812;2023-02-13T05:30:12;13.43;;;7.85;;
33836;SDS011;20140;49.356;8.812;2023-02-13T05:32:38;12.57;;;8.30;;
33836;SDS011;20140;49.356;8.812;2023-02-13T05:35:04;34.77;;;22.33;;
33836;SDS011;20140;49.356;8.812;2023-02-13T05:37:29;20.27;;;12.32;;
33836;SDS011;20140;49.356;8.812;2023-02-13T05:39:55;25.77;;;16.03;;
33836;SDS011;20140;49.356;8.812;2023-02-13T05:42:21;32.43;;;19.20;;
33836;SDS011;20140;49.356;8.812;2023-02-13T05:44:46;22.27;;;12.93;;
33836;SDS011;20140;49.356;8.812;2023-02-13T05:47:12;14.55;;;9.27;;
33836;SDS011;20140;49.356;8.812;2023-02-13T05:49:37;16.35;;;10.52;;
33836;SDS011;20140;49.356;8.812;2023-02-13T05:52:03;19.83;;;11.20;;
33836;SDS011;20140;49.356;8.812;2023-02-13T05:54:28;17.30;;;10.95;;
33836;SDS011;20140;49.356;8.812;2023-02-13T05:56:54;16.48;;;10.73;;
33836;SDS011;20140;49.356;8.812;2023-02-13T05:59:20;17.70;;;11.75;;
33836;SDS011;20140;49.356;8.812;2023-02-13T06:01:45;18.55;;;12.73;;
33836;SDS011;20140;49.356;8.812;2023-02-13T06:04:11;23.97;;;15.30;;
33836;SDS011;20140;49.356;8.812;2023-02-13T06:06:36;28.67;;;15.97;;
33836;SDS011;20140;49.356;8.812;2023-02-13T06:09:02;26.97;;;16.47;;
33836;SDS011;20140;49.356;8.812;2023-02-13T06:11:27;20.53;;;12.87;;
33836;SDS011;20140;49.356;8.812;2023-02-13T06:13:53;19.53;;;13.00;;
33836;SDS011;20140;49.356;8.812;2023-02-13T06:16:18;25.47;;;15.50;;
33836;SDS011;20140;49.356;8.812;2023-02-13T06:18:44;19.43;;;12.50;;
33836;SDS011;20140;49.356;8.812;2023-02-13T06:21:10;21.00;;;12.80;;
33836;SDS011;20140;49.356;8.812;2023-02-13T06:23:35;17.13;;;11.52;;
33836;SDS011;20140;49.356;8.812;2023-02-13T06:26:04;14.57;;;10.68;;
33836;SDS011;20140;49.356;8.812;2023-02-13T06:28:31;20.70;;;14.02;;
33836;SDS011;20140;49.356;8.812;2023-02-13T06:30:58;31.20;;;18.07;;
33836;SDS011;20140;49.356;8.812;2023-02-13T06:33:23;38.08;;;14.52;;
33836;SDS011;20140;49.356;8.812;2023-02-13T06:35:49;30.98;;;16.55;;
33836;SDS011;20140;49.356;8.812;2023-02-13T06:38:14;31.15;;;18.88;;
33836;SDS011;20140;49.356;8.812;2023-02-13T06:40:43;35.58;;;19.40;;
33836;SDS011;20140;49.356;8.812;2023-02-13T06:43:11;32.25;;;19.48;;
33836;SDS011;20140;49.356;8.812;2023-02-13T06:45:37;34.08;;;20.33;;
33836;SDS011;20140;49.356;8.812;2023-02-13T06:48:02;30.38;;;20.85;;
33836;SDS011;20140;49.356;8.812;2023-02-13T06:50:28;21.75;;;13.05;;
33836;SDS011;20140;49.356;8.812;2023-02-13T06:52:53;27.13;;;14.37;;
33836;SDS011;20140;49.356;8.812;2023-02-13T06:55:19;22.87;;;14.07;;
33836;SDS011;20140;49.356;8.812;2023-02-13T06:57:45;23.00;;;15.03;;
33836;SDS011;20140;49.356;8.812;2023-02-13T07:00:11;25.30;;;16.33;;
33836;SDS011;20140;49.356;8.812;2023-02-13T07:02:39;21.70;;;13.43;;
33836;SDS011;20140;49.356;8.812;2023-02-13T07:05:05;20.95;;;12.13;;
33836;SDS011;20140;49.356;8.812;2023-02-13T07:07:32;19.65;;;11.70;;
33836;SDS011;20140;49.356;8.812;2023-02-13T07:09:58;23.23;;;13.27;;
33836;SDS011;20140;49.356;8.812;2023-02-13T07:12:24;25.10;;;16.20;;
33836;SDS011;20140;49.356;8.812;2023-02-13T07:14:49;26.15;;;15.68;;
33836;SDS011;20140;49.356;8.812;2023-02-13T07:17:15;22.25;;;14.25;;
33836;SDS011;20140;49.356;8.812;2023-02-13T07:19:41;18.33;;;12.05;;
33836;SDS011;20140;49.356;8.812;2023-02-13T07:22:06;18.58;;;12.45;;
33836;SDS011;20140;49.356;8.812;2023-02-13T07:24:32;26.02;;;13.93;;
33836;SDS011;20140;49.356;8.812;2023-02-13T07:26:59;20.58;;;12.05;;
33836;SDS011;20140;49.356;8.812;2023-02-13T07:29:25;22.10;;;11.43;;
33836;SDS011;20140;49.356;8.812;2023-02-13T07:31:50;13.23;;;8.93;;
33836;SDS011;20140;49.356;8.812;2023-02-13T07:34:16;11.57;;;6.77;;
33836;SDS011;20140;49.356;8.812;2023-02-13T07:36:44;10.23;;;7.10;;
33836;SDS011;20140;49.356;8.812;2023-02-13T07:39:10;12.25;;;7.78;;
33836;SDS011;20140;49.356;8.812;2023-02-13T07:41:35;11.50;;;7.57;;
33836;SDS011;20140;49.356;8.812;2023-02-13T07:44:01;12.23;;;8.53;;
33836;SDS011;20140;49.356;8.812;2023-02-13T07:46:26;15.90;;;9.10;;
33836;SDS011;20140;49.356;8.812;2023-02-13T07:48:52;13.23;;;8.57;;
33836;SDS011;20140;49.356;8.812;2023-02-13T07:51:17;12.07;;;7.97;;
33836;SDS011;20140;49.356;8.812;2023-02-13T07:53:43;10.63;;;7.57;;
33836;SDS011;20140;49.356;8.812;2023-02-13T07:56:09;11.50;;;7.77;;
33836;SDS011;20140;49.356;8.812;2023-02-13T07:58:35;11.15;;;7.25;;
33836;SDS011;20140;49.356;8.812;2023-02-13T08:01:06;12.25;;;7.70;;
33836;SDS011;20140;49.356;8.812;2023-02-13T08:03:32;13.55;;;7.93;;
33836;SDS011;20140;49.356;8.812;2023-02-13T08:05:58;13.38;;;9.05;;
33836;SDS011;20140;49.356;8.812;2023-02-13T08:08:23;22.27;;;14.32;;
33836;SDS011;20140;49.356;8.812;2023-02-13T08:10:49;22.85;;;14.18;;
33836;SDS011;20140;49.356;8.812;2023-02-13T08:13:33;26.97;;;16.37;;
33836;SDS011;20140;49.356;8.812;2023-02-13T08:16:01;15.20;;;9.07;;
33836;SDS011;20140;49.356;8.812;2023-02-13T08:18:26;9.48;;;6.72;;
33836;SDS011;20140;49.356;8.812;2023-02-13T08:20:52;10.90;;;6.97;;
33836;SDS011;20140;49.356;8.812;2023-02-13T08:23:18;11.90;;;7.60;;
33836;SDS011;20140;49.356;8.812;2023-02-13T08:25:43;9.68;;;7.22;;
33836;SDS011;20140;49.356;8.812;2023-02-13T08:28:09;11.13;;;6.45;;
33836;SDS011;20140;49.356;8.812;2023-02-13T08:30:34;11.38;;;6.05;;
33836;SDS011;20140;49.356;8.812;2023-02-13T08:33:00;7.78;;;5.88;;
33836;SDS011;20140;49.356;8.812;2023-02-13T08:35:25;8.20;;;5.30;;
33836;SDS011;20140;49.356;8.812;2023-02-13T08:37:53;9.63;;;6.57;;
33836;SDS011;20140;49.356;8.812;2023-02-13T08:40:19;8.03;;;5.80;;
33836;SDS011;20140;49.356;8.812;2023-02-13T08:42:45;10.10;;;6.70;;
33836;SDS011;20140;49.356;8.812;2023-02-13T08:45:11;11.87;;;7.63;;
33836;SDS011;20140;49.356;8.812;2023-02-13T08:47:37;7.90;;;5.67;;
33836;SDS011;20140;49.356;8.812;2023-02-13T08:50:03;8.87;;;6.40;;
33836;SDS011;20140;49.356;8.812;2023-02-13T08:52:29;8.50;;;6.90;;
33836;SDS011;20140;49.356;8.812;2023-02-13T08:54:55;9.60;;;5.87;;
33836;SDS011;20140;49.356;8.812;2023-02-13T08:57:21;9.83;;;6.57;;
33836;SDS011;20140;49.356;8.812;2023-02-13T08:59:46;9.57;;;7.20;;
33836;SDS011;20140;49.356;8.812;2023-02-13T09:02:12;10.83;;;7.33;;
33836;SDS011;20140;49.356;8.812;2023-02-13T09:04:38;9.90;;;7.32;;
33836;SDS011;20140;49.356;8.812;2023-02-13T09:07:04;11.07;;;8.27;;
33836;SDS011;20140;49.356;8.812;2023-02-13T09:09:29;10.60;;;7.80;;
33836;SDS011;20140;49.356;8.812;2023-02-13T09:11:55;9.80;;;7.37;;
33836;SDS011;20140;49.356;8.812;2023-02-13T09:14:22;11.30;;;7.35;;
33836;SDS011;20140;49.356;8.812;2023-02-13T09:16:50;12.07;;;8.20;;
33836;SDS011;20140;49.356;8.812;2023-02-13T09:19:15;10.68;;;7.65;;
33836;SDS011;20140;49.356;8.812;2023-02-13T09:21:41;13.25;;;9.13;;
33836;SDS011;20140;49.356;8.812;2023-02-13T09:24:07;13.53;;;9.37;;
33836;SDS011;20140;49.356;8.812;2023-02-13T09:26:33;10.82;;;8.15;;
33836;SDS011;20140;49.356;8.812;2023-02-13T09:28:58;13.48;;;9.73;;
33836;SDS011;20140;49.356;8.812;2023-02-13T09:31:24;11.13;;;8.40;;
33836;SDS011;20140;49.356;8.812;2023-02-13T09:33:49;10.35;;;8.77;;
33836;SDS011;20140;49.356;8.812;2023-02-13T09:36:16;15.38;;;10.27;;
33836;SDS011;20140;49.356;8.812;2023-02-13T09:38:44;14.47;;;8.83;;
33836;SDS011;20140;49.356;8.812;2023-02-13T09:41:15;13.05;;;9.20;;
33836;SDS011;20140;49.356;8.812;2023-02-13T09:43:48;14.85;;;10.05;;
33836;SDS011;20140;49.356;8.812;2023-02-13T09:46:19;14.00;;;11.05;;
33836;SDS011;20140;49.356;8.812;2023-02-13T09:48:48;14.63;;;10.40;;
33836;SDS011;20140;49.356;8.812;2023-02-13T09:51:16;15.80;;;11.25;;
33836;SDS011;20140;49.356;8.812;2023-02-13T09:53:46;14.27;;;10.18;;
33836;SDS011;20140;49.356;8.812;2023-02-13T09:56:17;17.02;;;11.27;;
33836;SDS011;20140;49.356;8.812;2023-02-13T09:59:02;17.83;;;11.95;;
33836;SDS011;20140;49.356;8.812;2023-02-13T10:01:43;17.65;;;11.73;;
33836;SDS011;20140;49.356;8.812;2023-02-13T10:06:56;17.33;;;12.07;;
33836;SDS011;20140;49.356;8.812;2023-02-13T10:18:03;16.25;;;11.18;;
33836;SDS011;20140;49.356;8.812;2023-02-13T10:20:41;15.80;;;10.63;;
33836;SDS011;20140;49.356;8.812;2023-02-13T10:23:15;13.32;;;10.13;;
33836;SDS011;20140;49.356;8.812;2023-02-13T10:28:45;16.17;;;10.07;;
33836;SDS011;20140;49.356;8.812;2023-02-13T10:31:37;13.43;;;10.87;;
33836;SDS011;20140;49.356;8.812;2023-02-13T10:34:03;14.35;;;10.65;;
33836;SDS011;20140;49.356;8.812;2023-02-13T10:36:36;13.50;;;9.77;;
33836;SDS011;20140;49.356;8.812;2023-02-13T10:41:41;17.20;;;11.33;;
33836;SDS011;20140;49.356;8.812;2023-02-13T10:44:35;23.33;;;16.95;;
33836;SDS011;20140;49.356;8.812;2023-02-13T10:47:25;17.25;;;12.13;;
33836;SDS011;20140;49.356;8.812;2023-02-13T10:50:16;14.50;;;10.50;;
33836;SDS011;20140;49.356;8.812;2023-02-13T10:56:09;14.70;;;10.32;;
33836;SDS011;20140;49.356;8.812;2023-02-13T11:01:57;11.52;;;8.80;;
33836;SDS011;20140;49.356;8.812;2023-02-13T11:04:32;12.75;;;8.75;;
33836;SDS011;20140;49.356;8.812;2023-02-13T11:06:58;11.07;;;8.13;;
33836;SDS011;20140;49.356;8.812;2023-02-13T11:09:26;10.13;;;7.63;;
33836;SDS011;20140;49.356;8.812;2023-02-13T11:11:52;10.32;;;8.10;;
33836;SDS011;20140;49.356;8.812;2023-02-13T11:14:22;10.55;;;8.55;;
33836;SDS011;20140;49.356;8.812;2023-02-13T11:16:53;9.40;;;7.22;;
33836;SDS011;20140;49.356;8.812;2023-02-13T11:19:33;11.07;;;9.50;;
33836;SDS011;20140;49.356;8.812;2023-02-13T11:22:13;11.02;;;7.93;;
33836;SDS011;20140;49.356;8.812;2023-02-13T11:24:51;10.65;;;8.32;;
33836;SDS011;20140;49.356;8.812;2023-02-13T11:27:22;9.27;;;7.40;;
33836;SDS011;20140;49.356;8.812;2023-02-13T11:29:53;10.57;;;7.93;;
33836;SDS011;20140;49.356;8.812;2023-02-13T11:32:25;9.95;;;7.72;;
33836;SDS011;20140;49.356;8.812;2023-02-13T11:34:51;11.57;;;8.00;;
33836;SDS011;20140;49.356;8.812;2023-02-13T11:37:20;9.10;;;7.18;;
33836;SDS011;20140;49.356;8.812;2023-02-13T11:39:56;9.27;;;7.50;;
33836;SDS011;20140;49.356;8.812;2023-02-13T11:42:28;10.27;;;7.28;;
33836;SDS011;20140;49.356;8.812;2023-02-13T11:47:30;9.98;;;8.18;;
33836;SDS011;20140;49.356;8.812;2023-02-13T11:50:00;11.02;;;7.88;;
33836;SDS011;20140;49.356;8.812;2023-02-13T11:52:27;10.10;;;7.75;;
33836;SDS011;20140;49.356;8.812;2023-02-13T11:54:58;8.77;;;7.25;;
33836;SDS011;20140;49.356;8.812;2023-02-13T11:57:30;8.73;;;6.95;;
33836;SDS011;20140;49.356;8.812;2023-02-13T11:59:59;10.38;;;7.78;;
33836;SDS011;20140;49.356;8.812;2023-02-13T12:02:27;9.07;;;6.93;;
33836;SDS011;20140;49.356;8.812;2023-02-13T12:04:53;10.55;;;8.00;;
33836;SDS011;20140;49.356;8.812;2023-02-13T12:07:38;9.90;;;7.60;;
33836;SDS011;20140;49.356;8.812;2023-02-13T12:10:22;8.90;;;6.63;;
33836;SDS011;20140;49.356;8.812;2023-02-13T12:15:34;7.57;;;6.53;;
33836;SDS011;20140;49.356;8.812;2023-02-13T12:26:39;11.57;;;8.00;;
33836;SDS011;20140;49.356;8.812;2023-02-13T12:40:07;7.22;;;6.45;;
33836;SDS011;20140;49.356;8.812;2023-02-13T12:45:58;7.65;;;6.30;;
33836;SDS011;20140;49.356;8.812;2023-02-13T12:57:29;6.13;;;5.53;;
33836;SDS011;20140;49.356;8.812;2023-02-13T13:14:52;11.27;;;6.28;;
33836;SDS011;20140;49.356;8.812;2023-02-13T13:20:33;5.63;;;4.82;;
33836;SDS011;20140;49.356;8.812;2023-02-13T13:23:15;5.35;;;4.60;;
33836;SDS011;20140;49.356;8.812;2023-02-13T13:26:11;4.57;;;3.95;;
33836;SDS011;20140;49.356;8.812;2023-02-13T13:28:48;4.25;;;3.83;;
33836;SDS011;20140;49.356;8.812;2023-02-13T13:31:15;12.77;;;9.43;;
33836;SDS011;20140;49.356;8.812;2023-02-13T13:33:43;10.70;;;8.70;;
33836;SDS011;20140;49.356;8.812;2023-02-13T13:36:32;5.72;;;4.75;;
33836;SDS011;20140;49.356;8.812;2023-02-13T13:42:11;4.88;;;3.53;;
33836;SDS011;20140;49.356;8.812;2023-02-13T13:48:04;5.20;;;3.50;;
33836;SDS011;20140;49.356;8.812;2023-02-13T13:50:31;5.32;;;3.75;;
33836;SDS011;20140;49.356;8.812;2023-02-13T13:53:12;3.80;;;3.13;;
33836;SDS011;20140;49.356;8.812;2023-02-13T14:03:43;3.40;;;3.10;;
33836;SDS011;20140;49.356;8.812;2023-02-13T14:06:10;2.47;;;2.17;;
33836;SDS011;20140;49.356;8.812;2023-02-13T14:11:06;2.65;;;2.45;;
33836;SDS011;20140;49.356;8.812;2023-02-13T14:13:51;3.28;;;2.97;;
33836;SDS011;20140;49.356;8.812;2023-02-13T14:24:54;3.95;;;2.88;;
33836;SDS011;20140;49.356;8.812;2023-02-13T14:27:28;2.50;;;2.28;;
33836;SDS011;20140;49.356;8.812;2023-02-13T14:29:56;3.53;;;3.17;;
33836;SDS011;20140;49.356;8.812;2023-02-13T14:34:59;3.25;;;2.70;;
33836;SDS011;20140;49.356;8.812;2023-02-13T14:37:31;3.72;;;2.40;;
33836;SDS011;20140;49.356;8.812;2023-02-13T14:40:40;3.58;;;2.70;;
33836;SDS011;20140;49.356;8.812;2023-02-13T14:45:59;3.77;;;3.03;;
33836;SDS011;20140;49.356;8.812;2023-02-13T14:48:34;3.20;;;2.67;;
33836;SDS011;20140;49.356;8.812;2023-02-13T14:51:06;3.42;;;3.13;;
33836;SDS011;20140;49.356;8.812;2023-02-13T14:53:50;3.55;;;3.03;;
33836;SDS011;20140;49.356;8.812;2023-02-13T14:56:19;3.42;;;3.03;;
33836;SDS011;20140;49.356;8.812;2023-02-13T15:01:26;3.70;;;3.20;;
33836;SDS011;20140;49.356;8.812;2023-02-13T15:04:11;4.00;;;2.90;;
33836;SDS011;20140;49.356;8.812;2023-02-13T15:06:43;3.63;;;3.23;;
33836;SDS011;20140;49.356;8.812;2023-02-13T15:09:18;3.70;;;2.72;;
33836;SDS011;20140;49.356;8.812;2023-02-13T15:11:50;2.85;;;2.53;;
33836;SDS011;20140;49.356;8.812;2023-02-13T15:14:34;2.97;;;2.53;;
33836;SDS011;20140;49.356;8.812;2023-02-13T15:17:01;3.93;;;2.93;;
33836;SDS011;20140;49.356;8.812;2023-02-13T15:19:42;3.15;;;2.45;;
33836;SDS011;20140;49.356;8.812;2023-02-13T15:24:55;6.43;;;3.80;;
33836;SDS011;20140;49.356;8.812;2023-02-13T15:27:25;3.50;;;2.83;;
33836;SDS011;20140;49.356;8.812;2023-02-13T15:30:00;4.93;;;3.38;;
33836;SDS011;20140;49.356;8.812;2023-02-13T15:32:30;6.90;;;5.18;;
33836;SDS011;20140;49.356;8.812;2023-02-13T15:34:57;4.40;;;3.78;;
33836;SDS011;20140;49.356;8.812;2023-02-13T15:37:26;4.22;;;3.58;;
33836;SDS011;20140;49.356;8.812;2023-02-13T15:39:53;4.87;;;4.00;;
33836;SDS011;20140;49.356;8.812;2023-02-13T15:42:18;4.40;;;3.43;;
33836;SDS011;20140;49.356;8.812;2023-02-13T15:44:45;3.97;;;2.92;;
33836;SDS011;20140;49.356;8.812;2023-02-13T15:49:46;6.65;;;4.13;;
33836;SDS011;20140;49.356;8.812;2023-02-13T15:52:17;5.72;;;3.20;;
33836;SDS011;20140;49.356;8.812;2023-02-13T15:55:03;4.00;;;3.00;;
33836;SDS011;20140;49.356;8.812;2023-02-13T15:57:29;4.13;;;2.93;;
33836;SDS011;20140;49.356;8.812;2023-02-13T15:59:55;5.00;;;3.67;;
33836;SDS011;20140;49.356;8.812;2023-02-13T16:02:24;5.03;;;3.97;;
33836;SDS011;20140;49.356;8.812;2023-02-13T16:04:55;5.37;;;3.97;;
33836;SDS011;20140;49.356;8.812;2023-02-13T16:07:21;4.75;;;3.75;;
33836;SDS011;20140;49.356;8.812;2023-02-13T16:09:47;4.30;;;3.63;;
33836;SDS011;20140;49.356;8.812;2023-02-13T16:12:17;5.30;;;4.25;;
33836;SDS011;20140;49.356;8.812;2023-02-13T16:14:50;4.80;;;3.88;;
33836;SDS011;20140;49.356;8.812;2023-02-13T16:17:30;4.78;;;3.60;;
33836;SDS011;20140;49.356;8.812;2023-02-13T16:20:07;4.75;;;3.10;;
33836;SDS011;20140;49.356;8.812;2023-02-13T16:22:45;4.15;;;3.55;;
33836;SDS011;20140;49.356;8.812;2023-02-13T16:25:26;4.90;;;3.35;;
33836;SDS011;20140;49.356;8.812;2023-02-13T16:33:22;3.75;;;2.97;;
33836;SDS011;20140;49.356;8.812;2023-02-13T16:38:25;3.42;;;3.13;;
33836;SDS011;20140;49.356;8.812;2023-02-13T16:40:51;3.95;;;3.55;;
33836;SDS011;20140;49.356;8.812;2023-02-13T16:43:31;3.97;;;3.15;;
33836;SDS011;20140;49.356;8.812;2023-02-13T16:48:39;3.80;;;3.10;;
33836;SDS011;20140;49.356;8.812;2023-02-13T16:51:06;4.97;;;3.40;;
33836;SDS011;20140;49.356;8.812;2023-02-13T16:53:33;4.28;;;3.30;;
33836;SDS011;20140;49.356;8.812;2023-02-13T16:56:04;4.75;;;3.65;;
33836;SDS011;20140;49.356;8.812;2023-02-13T16:58:31;5.45;;;2.97;;
33836;SDS011;20140;49.356;8.812;2023-02-13T17:00:57;4.67;;;2.97;;
33836;SDS011;20140;49.356;8.812;2023-02-13T17:03:23;4.53;;;3.40;;
33836;SDS011;20140;49.356;8.812;2023-02-13T17:05:48;4.10;;;3.27;;
33836;SDS011;20140;49.356;8.812;2023-02-13T17:08:14;5.53;;;3.70;;
33836;SDS011;20140;49.356;8.812;2023-02-13T17:10:40;7.00;;;4.85;;
33836;SDS011;20140;49.356;8.812;2023-02-13T17:15:35;6.82;;;4.80;;
33836;SDS011;20140;49.356;8.812;2023-02-13T17:18:01;7.60;;;5.07;;
33836;SDS011;20140;49.356;8.812;2023-02-13T17:20:28;6.70;;;4.63;;
33836;SDS011;20140;49.356;8.812;2023-02-13T17:22:56;3.97;;;3.30;;
33836;SDS011;20140;49.356;8.812;2023-02-13T17:25:30;5.03;;;4.13;;
33836;SDS011;20140;49.356;8.812;2023-02-13T17:28:10;5.18;;;3.40;;
33836;SDS011;20140;49.356;8.812;2023-02-13T17:30:38;4.03;;;3.17;;
33836;SDS011;20140;49.356;8.812;2023-02-13T17:33:04;4.50;;;3.40;;
33836;SDS011;20140;49.356;8.812;2023-02-13T17:35:34;4.37;;;3.17;;
33836;SDS011;20140;49.356;8.812;2023-02-13T17:38:00;7.30;;;3.70;;
33836;SDS011;20140;49.356;8.812;2023-02-13T17:40:25;4.10;;;3.37;;
33836;SDS011;20140;49.356;8.812;2023-02-13T17:42:53;4.95;;;3.20;;
33836;SDS011;20140;49.356;8.812;2023-02-13T17:45:25;8.57;;;4.63;;
33836;SDS011;20140;49.356;8.812;2023-02-13T17:47:52;4.65;;;3.10;;
33836;SDS011;20140;49.356;8.812;2023-02-13T17:50:18;4.32;;;2.95;;